createdAt,value
2022-11-13T00:03:07.361Z,9.17
2022-11-13T00:08:30.011Z,9.18
2022-11-13T00:13:54.358Z,9.18
2022-11-13T00:19:17.416Z,9.19
2022-11-13T00:24:40.080Z,9.22
2022-11-13T00:30:02.917Z,9.23
2022-11-13T00:35:26.433Z,9.23
2022-11-13T00:40:48.946Z,9.22
2022-11-13T00:46:13.041Z,9.21
2022-11-13T00:51:35.319Z,9.18
2022-11-13T00:56:57.701Z,9.15
2022-11-13T01:02:19.933Z,9.15
2022-11-13T01:07:43.216Z,9.15
2022-11-13T01:13:05.495Z,9.16
2022-11-13T01:18:27.982Z,9.18
2022-11-13T01:23:50.793Z,9.17
2022-11-13T01:29:13.587Z,9.17
2022-11-13T01:34:36.910Z,9.18
2022-11-13T01:39:59.203Z,9.20
2022-11-13T01:45:57.371Z,9.18
2022-11-13T01:57:10.251Z,9.27
2022-11-13T02:02:33.003Z,9.18
2022-11-13T02:07:55.309Z,9.16
2022-11-13T02:13:18.276Z,9.16
2022-11-13T02:18:43.644Z,9.16
2022-11-13T02:24:25.716Z,9.14
2022-11-13T02:29:47.895Z,9.15
2022-11-13T02:35:10.808Z,9.14
2022-11-13T02:40:33.607Z,9.12
2022-11-13T02:45:55.800Z,9.12
2022-11-13T02:51:18.215Z,9.14
2022-11-13T02:56:40.576Z,9.15
2022-11-13T03:02:02.827Z,9.15
2022-11-13T03:07:26.883Z,9.17
2022-11-13T03:12:49.383Z,9.16
2022-11-13T03:18:13.519Z,9.18
2022-11-13T03:23:36.270Z,9.14
2022-11-13T03:28:58.897Z,9.16
2022-11-13T03:34:21.153Z,9.14
2022-11-13T03:39:43.560Z,9.14
2022-11-13T03:45:05.739Z,9.16
2022-11-13T03:50:28.234Z,9.18
2022-11-13T03:55:51.081Z,9.15
2022-11-13T04:01:14.682Z,9.16
2022-11-13T04:06:36.884Z,9.13
2022-11-13T04:11:59.115Z,9.12
2022-11-13T04:17:21.458Z,9.11
2022-11-13T04:22:44.103Z,9.11
2022-11-13T04:28:07.909Z,9.11
2022-11-13T04:33:30.182Z,9.12
2022-11-13T04:38:52.384Z,9.12
2022-11-13T04:44:15.873Z,9.12
2022-11-13T04:49:38.169Z,9.11
2022-11-13T04:55:00.915Z,9.11
2022-11-13T05:00:24.474Z,9.10
2022-11-13T05:05:46.673Z,9.09
2022-11-13T05:11:10.030Z,9.12
2022-11-13T05:16:33.238Z,9.12
2022-11-13T05:21:56.376Z,9.12
2022-11-13T05:27:18.577Z,9.14
2022-11-13T05:32:40.762Z,9.15
2022-11-13T05:38:02.969Z,9.14
2022-11-13T05:43:25.522Z,9.17
2022-11-13T05:48:48.212Z,9.19
2022-11-13T05:54:12.064Z,9.20
2022-11-13T05:59:34.393Z,9.19
2022-11-13T06:04:57.830Z,9.20
2022-11-13T06:10:20.481Z,9.20
2022-11-13T06:15:42.699Z,9.20
2022-11-13T06:21:13.005Z,9.21
2022-11-13T06:26:39.403Z,9.24
2022-11-13T06:32:01.619Z,9.25
2022-11-13T06:37:24.270Z,9.32
2022-11-13T06:42:46.469Z,9.35
2022-11-13T06:48:09.723Z,9.35
2022-11-13T06:53:32.175Z,9.34
2022-11-13T06:58:54.952Z,9.36
2022-11-13T07:04:18.834Z,9.40
2022-11-13T07:09:41.026Z,9.45
2022-11-13T07:15:03.207Z,9.51
2022-11-13T07:20:25.813Z,9.55
2022-11-13T07:25:48.589Z,9.64
2022-11-13T07:31:12.424Z,9.71
2022-11-13T07:36:34.962Z,9.68
2022-11-13T07:41:58.228Z,9.67
2022-11-13T07:47:20.687Z,9.64
2022-11-13T07:52:43.221Z,9.68
2022-11-13T07:58:09.350Z,9.74
2022-11-13T08:03:33.301Z,9.70
2022-11-13T08:08:56.694Z,9.72
2022-11-13T08:14:19.906Z,9.73
2022-11-13T08:19:42.177Z,9.73
2022-11-13T08:25:04.405Z,9.74
2022-11-13T08:30:28.506Z,9.79
2022-11-13T08:35:52.477Z,9.82
2022-11-13T08:41:19.352Z,9.91
2022-11-13T08:46:41.679Z,9.93
2022-11-13T08:52:04.176Z,9.90
2022-11-13T08:57:26.475Z,9.93
2022-11-13T09:02:48.903Z,9.97
2022-11-13T09:08:14.427Z,10.01
2022-11-13T09:13:42.876Z,9.94
2022-11-13T09:19:02.924Z,10.08
2022-11-13T09:24:25.168Z,10.13
2022-11-13T09:29:51.500Z,10.11
2022-11-13T09:35:12.062Z,10.17
2022-11-13T09:40:55.664Z,10.17
2022-11-13T09:46:34.508Z,10.15
2022-11-13T09:52:19.033Z,10.22
2022-11-13T09:57:55.199Z,10.23
2022-11-13T10:03:59.234Z,10.16
2022-11-13T10:09:08.277Z,10.03
2022-11-13T10:14:55.466Z,9.92
2022-11-13T10:20:31.342Z,9.77
2022-11-13T10:25:57.178Z,9.74
2022-11-13T10:31:20.989Z,9.77
2022-11-13T10:37:00.279Z,9.84
2022-11-13T10:42:28.334Z,9.87
2022-11-13T10:48:09.468Z,9.87
2022-11-13T10:53:21.332Z,9.77
2022-11-13T10:58:44.249Z,9.61
2022-11-13T11:04:10.798Z,9.59
2022-11-13T11:09:48.420Z,9.52
2022-11-13T11:15:24.062Z,9.64
2022-11-13T11:21:02.396Z,9.53
2022-11-13T11:26:40.984Z,9.51
2022-11-13T11:32:14.025Z,9.48
2022-11-13T11:37:43.446Z,9.52
2022-11-13T11:43:28.563Z,9.71
2022-11-13T11:48:51.959Z,9.78
2022-11-13T11:54:34.971Z,9.89
2022-11-13T12:00:10.775Z,10.01
2022-11-13T12:05:37.334Z,10.19
2022-11-13T12:11:10.483Z,10.11
2022-11-13T12:17:00.520Z,10.11
2022-11-13T12:22:31.145Z,9.96
2022-11-13T12:28:01.820Z,9.98
2022-11-13T12:33:44.577Z,9.93
2022-11-13T12:39:29.706Z,9.80
2022-11-13T12:50:46.415Z,9.85
2022-11-13T12:56:18.308Z,9.70
2022-11-13T13:01:43.425Z,9.72
2022-11-13T13:07:29.214Z,9.77
2022-11-13T13:13:24.814Z,9.73
2022-11-13T13:18:54.041Z,9.69
2022-11-13T13:24:30.516Z,9.68
2022-11-13T13:29:53.822Z,9.64
2022-11-13T13:35:39.265Z,9.65
2022-11-13T13:41:24.951Z,9.63
2022-11-13T13:46:49.501Z,9.61
2022-11-13T13:52:13.237Z,9.56
2022-11-13T13:57:36.282Z,9.52
2022-11-13T14:03:10.082Z,9.52
2022-11-13T14:08:40.115Z,9.44
2022-11-13T14:14:04.361Z,9.44
2022-11-13T14:19:28.571Z,9.40
2022-11-13T14:25:09.272Z,9.34
2022-11-13T14:30:45.915Z,9.35
2022-11-13T14:36:14.084Z,9.35
2022-11-13T14:41:50.065Z,9.32
2022-11-13T14:47:30.831Z,9.27
2022-11-13T14:52:54.858Z,9.27
2022-11-13T14:58:19.192Z,9.24
2022-11-13T15:03:41.460Z,9.21
2022-11-13T15:09:06.211Z,9.18
2022-11-13T15:14:31.681Z,9.23
2022-11-13T15:19:55.790Z,9.18
2022-11-13T15:25:31.080Z,9.30
2022-11-13T15:30:53.344Z,9.16
2022-11-13T15:36:15.991Z,9.13
2022-11-13T15:41:41.398Z,9.12
2022-11-13T15:47:04.148Z,9.00
2022-11-13T15:52:28.346Z,8.97
2022-11-13T15:57:50.764Z,8.91
2022-11-13T16:03:14.489Z,8.92
2022-11-13T16:08:37.167Z,8.89
2022-11-13T16:13:59.452Z,8.87
2022-11-13T16:19:25.893Z,8.85
2022-11-13T16:24:48.424Z,8.84
2022-11-13T16:30:11.816Z,8.82
2022-11-13T16:35:35.178Z,8.84
2022-11-13T16:40:57.985Z,8.78
2022-11-13T16:46:27.258Z,8.73
2022-11-13T16:51:49.483Z,8.67
2022-11-13T16:57:11.892Z,8.64
2022-11-13T17:02:35.583Z,8.59
2022-11-13T17:07:59.705Z,8.56
2022-11-13T17:13:22.468Z,8.56
2022-11-13T17:18:44.748Z,8.55
2022-11-13T17:24:09.191Z,8.52
2022-11-13T17:29:31.586Z,8.51
2022-11-13T17:34:54.689Z,8.51
2022-11-13T17:40:17.162Z,8.47
2022-11-13T17:45:41.360Z,8.47
2022-11-13T17:51:11.157Z,8.49
2022-11-13T17:56:35.064Z,8.47
2022-11-13T18:01:57.716Z,8.48
2022-11-13T18:07:20.263Z,8.48
2022-11-13T18:12:42.704Z,8.51
2022-11-13T18:18:04.931Z,8.50
2022-11-13T18:23:28.723Z,8.47
2022-11-13T18:28:52.429Z,8.49
2022-11-13T18:34:17.999Z,8.48
2022-11-13T18:39:40.462Z,8.46
2022-11-13T18:45:05.892Z,8.46
2022-11-13T18:50:28.109Z,8.43
2022-11-13T18:55:50.529Z,8.39
2022-11-13T19:01:22.177Z,8.40
2022-11-13T19:06:38.280Z,8.35
2022-11-13T19:12:00.927Z,8.31
2022-11-13T19:17:23.146Z,8.28
2022-11-13T19:22:45.855Z,8.21
2022-11-13T19:28:08.370Z,8.19
2022-11-13T19:33:31.262Z,8.12
2022-11-13T19:38:54.959Z,8.15
2022-11-13T19:44:18.071Z,8.10
2022-11-13T19:49:40.277Z,8.06
2022-11-13T19:55:03.396Z,7.98
2022-11-13T20:00:26.359Z,7.94
2022-11-13T20:05:50.208Z,7.93
2022-11-13T20:11:19.636Z,7.91
2022-11-13T20:16:42.791Z,7.88
2022-11-13T20:22:06.600Z,7.85
2022-11-13T20:27:31.321Z,7.70
2022-11-13T20:32:58.137Z,7.70
2022-11-13T20:38:20.552Z,7.72
2022-11-13T20:43:43.397Z,7.72
2022-11-13T20:49:06.475Z,7.70
2022-11-13T20:54:28.853Z,7.68
2022-11-13T20:59:51.165Z,7.65
2022-11-13T21:05:14.124Z,7.56
2022-11-13T21:10:36.348Z,7.57
2022-11-13T21:15:58.634Z,7.44
2022-11-13T21:21:29.217Z,7.44
2022-11-13T21:26:51.884Z,7.43
2022-11-13T21:32:14.087Z,7.43
2022-11-13T21:37:38.094Z,7.41
2022-11-13T21:43:00.623Z,7.40
2022-11-13T21:48:22.909Z,7.42
2022-11-13T21:53:45.241Z,7.39
2022-11-13T21:59:08.020Z,7.39
2022-11-13T22:04:30.767Z,7.35
2022-11-13T22:09:53.454Z,7.35
2022-11-13T22:15:16.218Z,7.33
2022-11-13T22:20:38.426Z,7.29
2022-11-13T22:26:02.524Z,7.28
2022-11-13T22:31:27.915Z,7.30
2022-11-13T22:36:51.524Z,7.27
2022-11-13T22:42:13.721Z,7.29
2022-11-13T22:47:38.155Z,7.30
2022-11-13T22:53:00.273Z,7.30
2022-11-13T22:58:22.460Z,7.33
2022-11-13T23:03:46.893Z,7.34
2022-11-13T23:09:10.805Z,7.32
2022-11-13T23:14:33.059Z,7.33
2022-11-13T23:19:55.839Z,7.31
2022-11-13T23:25:18.279Z,7.27
2022-11-13T23:30:40.739Z,7.27
2022-11-13T23:36:03.899Z,7.25
2022-11-13T23:41:28.140Z,7.20
2022-11-13T23:46:50.337Z,7.11
2022-11-13T23:52:12.505Z,7.09
2022-11-13T23:57:35.380Z,7.03
